Time;durP1;ratioP1;P1;durP2;ratioP2;P2;SDS_P1;SDS_P2;PMS_P1;PMS_P2;Temp;Humidity;BMP_temperature;BMP_pressure;BME280_temperature;BME280_humidity;BME280_pressure;Samples;Min_cycle;Max_cycle;Signal;HPM_P1;HPM_P2
2022/07/19 00:00:16;;;;;;;5.63;2.22;;;23.10;99.90;;;;;;4995607;28;20058;-84
2022/07/19 00:02:43;;;;;;;4.97;2.60;;;23.10;99.90;;;;;;4996312;28;20053;-83
2022/07/19 00:05:12;;;;;;;6.47;2.45;;;23.10;99.90;;;;;;5011039;28;20435;-83
2022/07/19 00:07:40;;;;;;;5.10;3.15;;;23.10;99.90;;;;;;5011050;28;20042;-84
2022/07/19 00:10:09;;;;;;;4.97;2.40;;;23.00;99.90;;;;;;5011248;28;20112;-84
2022/07/19 00:12:37;;;;;;;6.63;2.63;;;23.00;99.90;;;;;;4996041;28;20069;-84
2022/07/19 00:15:06;;;;;;;6.93;2.25;;;22.90;99.90;;;;;;4995915;28;20049;-84
2022/07/19 00:17:33;;;;;;;2.35;1.98;;;22.90;99.90;;;;;;5010540;28;20439;-84
2022/07/19 00:20:00;;;;;;;3.38;2.35;;;22.80;99.90;;;;;;5011562;28;20050;-84
2022/07/19 00:22:27;;;;;;;11.38;1.88;;;22.80;99.90;;;;;;4996809;28;20058;-86
2022/07/19 00:24:55;;;;;;;3.80;1.92;;;22.70;99.90;;;;;;4991092;28;20055;-84
2022/07/19 00:27:22;;;;;;;2.78;2.15;;;22.80;99.90;;;;;;5006129;28;20554;-82
2022/07/19 00:29:49;;;;;;;3.03;2.15;;;22.80;99.90;;;;;;4995789;28;20073;-87
2022/07/19 00:32:16;;;;;;;8.23;2.33;;;22.70;99.90;;;;;;4995009;28;20043;-82
2022/07/19 00:34:43;;;;;;;3.28;1.90;;;22.70;99.90;;;;;;5010094;28;20050;-84
2022/07/19 00:37:10;;;;;;;5.22;2.22;;;22.70;99.90;;;;;;4995919;28;20050;-84
2022/07/19 00:39:37;;;;;;;3.10;2.30;;;22.80;99.90;;;;;;4994652;28;20051;-85
2022/07/19 00:42:04;;;;;;;5.78;2.47;;;22.80;99.90;;;;;;4993663;28;20057;-84
2022/07/19 00:44:31;;;;;;;3.92;2.15;;;22.70;99.90;;;;;;4995114;28;20054;-84
2022/07/19 00:46:58;;;;;;;4.60;2.55;;;22.60;99.90;;;;;;4994145;28;20049;-84
2022/07/19 00:49:25;;;;;;;9.60;2.75;;;22.50;99.90;;;;;;4987674;28;20042;-84
2022/07/19 00:51:53;;;;;;;6.38;2.17;;;22.40;99.90;;;;;;5009808;28;20047;-84
2022/07/19 00:54:21;;;;;;;3.72;2.30;;;22.40;99.90;;;;;;5009804;28;20049;-84
2022/07/19 00:56:49;;;;;;;2.53;2.20;;;22.40;99.90;;;;;;4995938;28;20050;-84
2022/07/19 00:59:18;;;;;;;3.33;1.80;;;22.30;99.90;;;;;;5012999;28;20106;-84
2022/07/19 01:01:45;;;;;;;3.92;2.13;;;22.30;99.90;;;;;;4989825;28;20115;-85
2022/07/19 01:11:49;;;;;;;2.78;2.40;;;22.40;99.90;;;;;;5026071;28;20140;-76
2022/07/19 01:14:16;;;;;;;5.28;2.33;;;22.10;99.90;;;;;;5034246;28;20125;-76
2022/07/19 01:16:44;;;;;;;7.28;2.30;;;22.20;99.90;;;;;;5033784;28;20136;-75
2022/07/19 01:19:13;;;;;;;4.63;2.28;;;22.10;99.90;;;;;;5031747;28;20159;-75
2022/07/19 01:21:40;;;;;;;3.65;2.30;;;22.10;99.90;;;;;;5031409;28;20592;-74
2022/07/19 01:24:07;;;;;;;4.55;2.25;;;22.00;99.90;;;;;;5029228;28;20152;-74
2022/07/19 01:26:34;;;;;;;3.72;2.17;;;22.00;99.90;;;;;;5029376;28;20156;-75
2022/07/19 01:29:01;;;;;;;4.90;2.00;;;22.00;99.90;;;;;;5029026;28;20047;-76
2022/07/19 01:31:27;;;;;;;7.03;2.33;;;22.00;99.90;;;;;;5029797;28;20426;-76
2022/07/19 01:33:54;;;;;;;5.25;2.20;;;21.80;99.90;;;;;;5033770;28;20128;-74
2022/07/19 01:36:21;;;;;;;3.10;2.10;;;21.80;99.90;;;;;;5029648;28;20044;-75
2022/07/19 01:38:48;;;;;;;7.38;4.75;;;21.80;99.90;;;;;;5032213;28;20467;-75
2022/07/19 01:41:14;;;;;;;5.85;2.65;;;21.90;99.90;;;;;;5027454;28;20048;-77
2022/07/19 01:43:41;;;;;;;4.55;2.30;;;21.90;99.90;;;;;;5030121;28;20132;-77
2022/07/19 01:46:08;;;;;;;4.60;2.42;;;21.90;99.90;;;;;;5030295;28;20041;-77
2022/07/19 01:48:35;;;;;;;6.63;2.30;;;21.80;99.90;;;;;;5028028;28;20454;-77
2022/07/19 01:51:02;;;;;;;5.63;2.38;;;21.90;99.90;;;;;;5033201;28;20471;-76
2022/07/19 01:53:28;;;;;;;4.65;2.03;;;21.80;99.90;;;;;;5029846;28;20057;-76
2022/07/19 01:55:55;;;;;;;4.47;2.30;;;21.80;99.90;;;;;;5033487;28;20045;-73
2022/07/19 01:58:22;;;;;;;4.20;2.25;;;21.80;99.90;;;;;;5028905;28;20116;-76
2022/07/19 02:00:48;;;;;;;5.15;2.15;;;21.80;99.90;;;;;;5032925;28;20140;-77
2022/07/19 02:03:16;;;;;;;3.42;2.10;;;21.80;99.90;;;;;;5027007;28;20053;-77
2022/07/19 02:05:43;;;;;;;3.63;2.22;;;21.70;99.90;;;;;;5025175;28;20080;-77
2022/07/19 02:08:12;;;;;;;3.50;1.80;;;21.70;99.90;;;;;;5029086;28;20080;-76
2022/07/19 02:10:38;;;;;;;3.75;2.22;;;21.70;99.90;;;;;;5027469;28;20046;-77
2022/07/19 02:13:05;;;;;;;3.38;2.25;;;21.60;99.90;;;;;;5026204;28;20045;-76
2022/07/19 02:15:33;;;;;;;2.88;2.28;;;21.60;99.90;;;;;;5035732;28;20053;-77
2022/07/19 02:18:00;;;;;;;5.15;2.20;;;21.50;99.90;;;;;;5024930;28;20206;-77
2022/07/19 02:20:27;;;;;;;4.22;2.65;;;21.50;99.90;;;;;;5025369;28;20512;-77
2022/07/19 02:22:54;;;;;;;4.00;2.33;;;21.50;99.90;;;;;;5028318;28;20567;-76
2022/07/19 02:25:20;;;;;;;3.92;2.20;;;21.50;99.90;;;;;;5040320;28;20053;-77
2022/07/19 02:27:47;;;;;;;5.97;2.40;;;21.40;99.90;;;;;;5028864;28;20041;-77
2022/07/19 02:30:14;;;;;;;3.15;1.90;;;21.40;99.90;;;;;;5031494;28;20056;-76
2022/07/19 02:32:41;;;;;;;4.03;2.20;;;21.40;99.90;;;;;;5024276;28;20076;-77
2022/07/19 02:35:10;;;;;;;4.93;1.92;;;21.40;99.90;;;;;;5035701;28;20049;-77
2022/07/19 02:37:39;;;;;;;4.70;2.15;;;21.40;99.90;;;;;;5028153;28;20061;-76
2022/07/19 02:40:07;;;;;;;2.65;2.20;;;21.40;99.90;;;;;;5029874;28;20132;-75
2022/07/19 02:42:34;;;;;;;6.97;2.30;;;21.40;99.90;;;;;;5028185;28;20041;-76
2022/07/19 02:45:01;;;;;;;2.10;1.90;;;21.40;99.90;;;;;;5030578;28;20483;-75
2022/07/19 02:47:28;;;;;;;4.88;2.05;;;21.40;99.90;;;;;;5032280;28;20084;-75
2022/07/19 02:49:54;;;;;;;7.78;2.30;;;21.30;99.90;;;;;;5031282;28;20300;-76
2022/07/19 02:52:21;;;;;;;3.97;2.00;;;21.20;99.90;;;;;;5029858;28;20048;-77
2022/07/19 02:54:48;;;;;;;6.60;2.45;;;21.30;99.90;;;;;;5032167;28;20076;-76
2022/07/19 02:57:14;;;;;;;4.55;1.90;;;21.20;99.90;;;;;;5032235;28;20085;-76
2022/07/19 02:59:41;;;;;;;3.15;2.22;;;21.10;99.90;;;;;;5031477;28;20400;-77
2022/07/19 03:02:08;;;;;;;5.18;2.63;;;21.10;99.90;;;;;;5024348;28;20144;-77
2022/07/19 03:04:34;;;;;;;5.05;2.08;;;21.20;99.90;;;;;;5028970;28;20119;-76
2022/07/19 03:07:02;;;;;;;4.00;2.05;;;21.00;99.90;;;;;;5027067;28;20148;-77
2022/07/19 03:09:28;;;;;;;3.63;2.15;;;21.00;99.90;;;;;;5030482;28;20569;-77
2022/07/19 03:11:55;;;;;;;2.63;1.80;;;21.00;99.90;;;;;;5030662;28;20092;-77
2022/07/19 03:14:22;;;;;;;6.28;2.30;;;21.00;99.90;;;;;;5032056;28;20087;-76
2022/07/19 03:16:48;;;;;;;5.75;2.17;;;21.00;99.90;;;;;;5027223;28;20128;-76
2022/07/19 03:19:15;;;;;;;6.45;2.00;;;20.90;99.90;;;;;;5031648;28;20045;-76
2022/07/19 03:21:42;;;;;;;3.70;2.03;;;20.90;99.90;;;;;;5027612;28;20499;-76
2022/07/19 03:24:09;;;;;;;3.45;2.35;;;20.80;99.90;;;;;;5032114;28;20599;-77
2022/07/19 03:26:36;;;;;;;2.88;2.20;;;20.80;99.90;;;;;;5036021;28;20057;-77
2022/07/19 03:29:03;;;;;;;4.88;1.90;;;20.80;99.90;;;;;;5028569;28;20069;-76
2022/07/19 03:31:30;;;;;;;4.05;2.40;;;20.80;99.90;;;;;;5025331;28;20138;-75
2022/07/19 03:33:57;;;;;;;5.43;2.10;;;20.80;99.90;;;;;;5032126;28;20267;-76
2022/07/19 03:36:23;;;;;;;3.78;2.10;;;20.80;99.90;;;;;;5031979;28;20085;-76
2022/07/19 03:38:50;;;;;;;9.32;2.40;;;20.80;99.90;;;;;;5030061;28;20081;-76
2022/07/19 03:41:17;;;;;;;3.03;2.20;;;20.90;99.90;;;;;;5024792;28;20133;-76
2022/07/19 03:43:43;;;;;;;3.40;1.90;;;20.80;99.90;;;;;;5037961;28;20084;-77
2022/07/19 03:46:10;;;;;;;4.60;2.20;;;20.80;99.90;;;;;;5031967;28;20463;-77
2022/07/19 03:48:37;;;;;;;3.20;1.88;;;20.80;99.90;;;;;;5027038;28;20060;-75
2022/07/19 03:51:04;;;;;;;2.95;2.00;;;20.70;99.90;;;;;;5027262;28;20101;-77
2022/07/19 03:53:31;;;;;;;6.65;2.67;;;20.70;99.90;;;;;;5028380;28;20135;-76
2022/07/19 03:55:57;;;;;;;6.13;2.55;;;20.60;99.90;;;;;;5031383;28;20488;-76
2022/07/19 03:58:24;;;;;;;6.05;2.55;;;20.60;99.90;;;;;;5025462;28;20077;-76
2022/07/19 04:00:51;;;;;;;4.75;2.30;;;20.60;99.90;;;;;;5027148;28;20085;-76
2022/07/19 04:03:17;;;;;;;4.13;2.53;;;20.60;99.90;;;;;;5035004;28;20046;-76
2022/07/19 04:05:44;;;;;;;4.28;2.97;;;20.60;99.90;;;;;;5027555;28;20125;-76
2022/07/19 04:08:11;;;;;;;5.10;2.35;;;20.60;99.90;;;;;;5028578;28;20084;-76
2022/07/19 04:10:38;;;;;;;4.93;2.30;;;20.60;99.90;;;;;;5023335;28;20512;-76
2022/07/19 04:13:04;;;;;;;3.45;1.98;;;20.60;99.90;;;;;;5030942;28;20045;-77
2022/07/19 04:15:31;;;;;;;6.50;2.70;;;20.60;99.90;;;;;;5022776;28;20099;-77
2022/07/19 04:17:58;;;;;;;6.88;2.00;;;20.60;99.90;;;;;;5028942;28;20133;-76
2022/07/19 04:20:25;;;;;;;4.22;2.35;;;20.60;99.90;;;;;;5026469;28;20050;-76
2022/07/19 04:22:52;;;;;;;4.78;2.10;;;20.60;99.90;;;;;;5027428;28;20497;-77
2022/07/19 04:25:19;;;;;;;4.60;2.08;;;20.60;99.90;;;;;;5028504;28;20056;-76
2022/07/19 04:27:47;;;;;;;2.30;2.03;;;20.60;99.90;;;;;;5026805;28;20060;-77
2022/07/19 04:30:13;;;;;;;3.50;2.03;;;20.50;99.90;;;;;;5025885;28;20072;-76
2022/07/19 04:32:40;;;;;;;4.88;1.88;;;20.50;99.90;;;;;;5027134;28;20100;-76
2022/07/19 04:35:07;;;;;;;5.70;2.25;;;20.50;99.90;;;;;;5030166;28;20048;-76
2022/07/19 04:37:34;;;;;;;3.17;2.05;;;20.60;99.90;;;;;;5030689;28;20103;-76
2022/07/19 04:40:01;;;;;;;3.53;2.78;;;20.60;99.90;;;;;;5034103;28;20056;-75
2022/07/19 04:42:27;;;;;;;8.52;2.70;;;20.60;99.90;;;;;;5029693;28;20076;-75
2022/07/19 04:44:54;;;;;;;4.38;2.17;;;20.60;99.90;;;;;;5026957;28;20077;-76
2022/07/19 04:47:21;;;;;;;5.85;2.13;;;20.50;99.90;;;;;;5034462;28;20085;-76
2022/07/19 04:49:48;;;;;;;5.13;2.28;;;20.50;99.90;;;;;;5033630;28;20049;-76
2022/07/19 04:52:14;;;;;;;6.90;2.15;;;20.50;99.90;;;;;;5026693;28;20076;-76
2022/07/19 04:54:41;;;;;;;2.97;2.03;;;20.50;99.90;;;;;;5041838;28;20084;-76
2022/07/19 04:57:08;;;;;;;7.85;2.08;;;20.60;99.90;;;;;;5032874;28;20575;-76
2022/07/19 04:59:35;;;;;;;4.72;2.50;;;20.70;99.90;;;;;;5040375;28;20137;-77
2022/07/19 05:02:02;;;;;;;7.82;2.30;;;20.80;99.90;;;;;;5028580;28;20088;-77
2022/07/19 05:04:29;;;;;;;4.80;2.67;;;20.90;99.90;;;;;;5034566;28;20053;-77
2022/07/19 05:06:58;;;;;;;4.35;2.53;;;21.00;99.90;;;;;;5030993;28;20053;-77
2022/07/19 05:09:26;;;;;;;7.43;2.10;;;21.10;99.90;;;;;;5034548;28;20045;-77
2022/07/19 05:11:54;;;;;;;4.53;2.30;;;21.30;99.90;;;;;;5028855;28;20125;-76
2022/07/19 05:14:21;;;;;;;7.70;2.30;;;21.40;99.90;;;;;;5033671;28;20072;-77
2022/07/19 05:16:49;;;;;;;5.47;2.53;;;21.60;99.90;;;;;;5030948;28;20503;-76
2022/07/19 05:19:17;;;;;;;9.02;2.97;;;21.80;99.90;;;;;;5032683;28;20582;-76
2022/07/19 05:21:43;;;;;;;4.03;2.60;;;21.90;99.90;;;;;;5028663;28;20048;-76
2022/07/19 05:24:10;;;;;;;5.75;2.67;;;22.00;99.90;;;;;;5030621;28;20076;-77
2022/07/19 05:26:37;;;;;;;5.70;3.08;;;22.10;99.90;;;;;;5031957;28;20049;-77
2022/07/19 05:29:04;;;;;;;7.60;3.25;;;22.20;99.90;;;;;;5033150;28;20100;-77
2022/07/19 05:31:30;;;;;;;10.32;3.63;;;22.30;99.90;;;;;;5026907;28;20077;-76
2022/07/19 05:33:58;;;;;;;6.22;3.05;;;22.40;99.90;;;;;;5031836;28;20499;-77
2022/07/19 05:36:25;;;;;;;6.65;2.10;;;22.40;99.90;;;;;;5033561;28;20115;-77
2022/07/19 05:38:53;;;;;;;4.10;2.60;;;22.50;99.90;;;;;;5028465;28;20053;-77
2022/07/19 05:41:21;;;;;;;6.60;2.10;;;22.50;99.90;;;;;;5031513;28;20080;-77
2022/07/19 05:43:52;;;;;;;4.07;2.75;;;22.50;99.90;;;;;;5030416;28;20057;-77
2022/07/19 05:46:19;;;;;;;6.25;2.75;;;22.50;99.90;;;;;;5033744;28;20487;-76
2022/07/19 05:48:46;;;;;;;5.57;2.10;;;22.60;99.90;;;;;;5026892;28;20041;-76
2022/07/19 05:51:14;;;;;;;4.00;2.08;;;22.60;99.90;;;;;;5027466;28;20111;-77
2022/07/19 05:53:41;;;;;;;9.73;2.78;;;22.60;99.90;;;;;;5031713;28;20119;-76
2022/07/19 05:56:08;;;;;;;3.30;2.20;;;22.60;99.90;;;;;;5028922;28;20076;-77
2022/07/19 05:58:35;;;;;;;9.82;2.60;;;22.60;99.90;;;;;;5032229;28;20084;-77
2022/07/19 06:01:19;;;;;;;7.97;2.88;;;22.70;99.90;;;;;;5027542;28;20136;-77
2022/07/19 06:03:47;;;;;;;8.13;2.55;;;22.70;99.90;;;;;;5032077;28;20137;-76
2022/07/19 06:06:22;;;;;;;4.75;2.47;;;22.70;99.90;;;;;;5027703;28;20084;-77
2022/07/19 06:08:49;;;;;;;4.72;2.72;;;22.70;99.90;;;;;;5028087;28;20049;-77
2022/07/19 06:11:17;;;;;;;5.10;2.30;;;22.70;99.90;;;;;;5023965;28;20448;-77
2022/07/19 06:13:46;;;;;;;4.82;2.45;;;22.70;99.90;;;;;;5032992;28;20080;-77
2022/07/19 06:16:13;;;;;;;6.78;2.63;;;22.70;99.90;;;;;;5025071;28;20128;-77
2022/07/19 06:18:40;;;;;;;4.85;2.78;;;22.70;99.90;;;;;;5032817;28;20049;-77
2022/07/19 06:21:12;;;;;;;8.30;2.63;;;22.80;99.90;;;;;;5027373;28;20457;-77
2022/07/19 06:23:40;;;;;;;7.63;2.85;;;22.80;99.90;;;;;;5031875;28;20137;-77
2022/07/19 06:26:09;;;;;;;3.97;2.35;;;22.80;99.90;;;;;;5027418;28;20124;-77
2022/07/19 06:28:36;;;;;;;4.28;2.38;;;22.80;99.90;;;;;;5027541;28;20077;-77
2022/07/19 06:31:08;;;;;;;3.97;2.38;;;22.90;99.90;;;;;;5029162;28;20049;-77
2022/07/19 06:33:35;;;;;;;6.47;2.80;;;22.90;99.90;;;;;;5029011;28;20050;-77
2022/07/19 06:36:01;;;;;;;4.57;2.70;;;22.90;99.90;;;;;;5028509;28;20125;-77
2022/07/19 06:38:28;;;;;;;4.20;2.35;;;22.90;99.90;;;;;;5028400;28;20085;-76
2022/07/19 06:40:55;;;;;;;4.40;2.72;;;22.90;99.90;;;;;;5026727;28;20132;-76
2022/07/19 06:43:21;;;;;;;5.05;2.10;;;23.00;99.90;;;;;;5029914;28;20053;-77
2022/07/19 06:45:48;;;;;;;5.57;2.50;;;23.00;99.90;;;;;;5030910;28;20176;-77
2022/07/19 06:48:15;;;;;;;3.22;2.50;;;23.10;99.90;;;;;;5031339;28;20407;-77
2022/07/19 06:50:42;;;;;;;10.02;2.35;;;23.10;99.90;;;;;;5025339;28;20042;-77
2022/07/19 06:53:09;;;;;;;8.32;3.40;;;23.20;99.90;;;;;;5028263;28;20050;-77
2022/07/19 06:55:36;;;;;;;5.57;2.20;;;23.20;99.90;;;;;;5031288;28;20460;-78
2022/07/19 06:58:03;;;;;;;10.68;3.20;;;23.20;99.90;;;;;;5030501;28;20052;-77
2022/07/19 07:00:30;;;;;;;7.80;2.97;;;23.20;99.90;;;;;;5026007;28;20100;-77
2022/07/19 07:02:56;;;;;;;6.05;3.03;;;23.30;99.90;;;;;;5027527;28;20551;-77
2022/07/19 07:05:23;;;;;;;3.58;2.78;;;23.30;99.90;;;;;;5031619;28;20041;-77
2022/07/19 07:07:52;;;;;;;7.55;2.63;;;23.30;99.90;;;;;;5033469;28;20049;-77
2022/07/19 07:10:18;;;;;;;8.45;2.70;;;23.40;99.90;;;;;;5026500;28;20129;-77
2022/07/19 07:12:45;;;;;;;6.95;2.55;;;23.40;99.90;;;;;;5031890;28;20561;-77
2022/07/19 07:15:12;;;;;;;8.05;2.90;;;23.40;99.90;;;;;;5027024;28;20543;-77
2022/07/19 07:17:39;;;;;;;10.88;2.50;;;23.50;99.90;;;;;;5023151;28;20056;-77
2022/07/19 07:20:07;;;;;;;7.05;2.85;;;23.50;99.90;;;;;;5027815;28;20521;-77
2022/07/19 07:22:35;;;;;;;11.18;2.92;;;23.50;99.90;;;;;;5028546;28;20057;-77
2022/07/19 07:25:03;;;;;;;9.15;2.90;;;23.60;99.90;;;;;;5030937;28;20128;-78
2022/07/19 07:27:30;;;;;;;6.47;2.83;;;23.60;99.90;;;;;;5030440;28;20076;-77
2022/07/19 07:29:57;;;;;;;9.85;3.20;;;23.60;99.90;;;;;;5029600;28;20128;-78
2022/07/19 07:32:26;;;;;;;9.55;2.97;;;23.70;99.90;;;;;;5028061;28;20474;-78
2022/07/19 07:34:54;;;;;;;6.32;2.53;;;23.80;99.90;;;;;;5035760;28;20049;-78
2022/07/19 07:37:20;;;;;;;8.93;3.17;;;23.80;99.90;;;;;;5030539;28;20078;-77
2022/07/19 07:39:47;;;;;;;6.90;3.22;;;23.90;99.90;;;;;;5026748;28;20050;-77
2022/07/19 07:42:14;;;;;;;7.30;2.78;;;23.90;99.90;;;;;;5028940;28;20073;-77
2022/07/19 07:44:41;;;;;;;6.40;2.70;;;23.90;99.90;;;;;;5025406;28;20054;-77
2022/07/19 07:47:08;;;;;;;6.07;2.83;;;24.00;99.90;;;;;;5024524;28;20156;-78
2022/07/19 07:49:38;;;;;;;6.93;2.53;;;24.00;99.90;;;;;;5030210;28;20049;-77
2022/07/19 07:52:06;;;;;;;5.63;2.97;;;24.00;99.90;;;;;;5024117;28;20072;-77
2022/07/19 07:54:34;;;;;;;8.52;3.38;;;24.10;99.90;;;;;;5026277;28;20070;-78
2022/07/19 07:57:02;;;;;;;7.00;2.78;;;24.20;99.90;;;;;;5028680;28;20103;-77
2022/07/19 07:59:29;;;;;;;9.68;3.05;;;24.20;99.90;;;;;;5030668;28;20055;-77
2022/07/19 08:01:56;;;;;;;7.53;3.03;;;24.20;99.90;;;;;;5025334;28;20100;-77
2022/07/19 08:04:26;;;;;;;6.50;2.95;;;24.30;99.90;;;;;;5027014;28;20129;-78
2022/07/19 08:06:53;;;;;;;14.10;2.72;;;24.40;99.90;;;;;;5031032;28;20056;-76
2022/07/19 08:09:20;;;;;;;5.90;2.60;;;24.40;99.90;;;;;;5032388;28;20077;-76
2022/07/19 08:11:47;;;;;;;9.52;3.20;;;24.40;99.90;;;;;;5027956;28;20064;-76
2022/07/19 08:14:14;;;;;;;8.15;3.20;;;24.50;99.90;;;;;;5035262;28;20510;-76
2022/07/19 08:16:41;;;;;;;8.50;3.00;;;24.60;99.90;;;;;;5032144;28;20099;-76
2022/07/19 08:19:08;;;;;;;8.10;2.50;;;24.60;99.90;;;;;;5033543;28;20096;-76
2022/07/19 08:21:35;;;;;;;9.65;2.97;;;24.70;99.90;;;;;;5029255;28;20052;-76
2022/07/19 08:24:02;;;;;;;8.88;2.83;;;24.70;99.90;;;;;;5027475;28;20145;-76
2022/07/19 08:26:38;;;;;;;7.07;2.70;;;24.80;99.90;;;;;;5026411;28;20052;-77
2022/07/19 08:29:04;;;;;;;5.72;2.50;;;24.80;99.90;;;;;;5032753;28;20049;-76
2022/07/19 08:31:31;;;;;;;5.82;2.50;;;24.90;99.90;;;;;;5033975;28;20306;-76
2022/07/19 08:33:58;;;;;;;7.72;2.83;;;24.90;99.90;;;;;;5031344;28;20124;-76
2022/07/19 08:36:25;;;;;;;9.20;3.03;;;25.00;99.90;;;;;;5029584;28;20049;-76
2022/07/19 08:38:52;;;;;;;6.53;2.78;;;25.00;99.90;;;;;;5026300;28;20164;-75
2022/07/19 08:41:20;;;;;;;5.18;2.60;;;25.10;99.90;;;;;;5027837;28;20440;-76
2022/07/19 08:43:49;;;;;;;3.95;2.65;;;25.10;99.90;;;;;;5031038;28;20045;-76
2022/07/19 08:46:19;;;;;;;8.75;2.40;;;25.20;99.90;;;;;;5031649;28;20077;-76
2022/07/19 08:48:47;;;;;;;7.47;2.45;;;25.20;99.90;;;;;;5037752;28;20096;-76
2022/07/19 08:51:18;;;;;;;4.10;2.50;;;25.30;99.90;;;;;;5031087;28;20099;-76
2022/07/19 08:53:46;;;;;;;5.43;2.97;;;25.30;99.90;;;;;;5041681;28;20076;-76
2022/07/19 08:58:58;;;;;;;7.35;2.50;;;25.40;99.90;;;;;;5030123;28;20080;-76
2022/07/19 09:01:24;;;;;;;5.72;2.25;;;25.50;99.90;;;;;;5034341;28;20104;-77
2022/07/19 09:04:11;;;;;;;6.47;2.67;;;25.50;99.90;;;;;;5037929;28;20061;-76
2022/07/19 09:06:53;;;;;;;6.32;2.42;;;25.60;99.90;;;;;;5034490;28;20141;-76
2022/07/19 09:09:31;;;;;;;11.20;2.38;;;25.70;99.90;;;;;;5029698;28;20095;-77
2022/07/19 09:11:59;;;;;;;6.93;2.50;;;25.80;99.90;;;;;;5046507;28;20582;-76
2022/07/19 09:14:28;;;;;;;6.25;2.38;;;25.80;99.90;;;;;;5029543;28;20065;-76
2022/07/19 09:17:09;;;;;;;4.20;1.90;;;25.80;99.90;;;;;;5033831;28;20077;-76
2022/07/19 09:19:38;;;;;;;5.85;2.33;;;25.90;99.90;;;;;;5022956;28;20295;-76
2022/07/19 09:22:09;;;;;;;5.35;1.88;;;26.00;99.90;;;;;;5032741;28;20155;-77
2022/07/19 09:24:41;;;;;;;6.20;2.15;;;26.10;99.90;;;;;;5030259;28;20077;-77
2022/07/19 09:27:14;;;;;;;5.72;2.45;;;26.20;99.90;;;;;;5030942;28;20103;-76
2022/07/19 09:29:45;;;;;;;8.25;2.20;;;26.20;99.90;;;;;;5033260;28;20053;-76
2022/07/19 09:32:11;;;;;;;;;;;26.30;99.90;;;;;;5030526;28;20081;-77
2022/07/19 09:34:42;;;;;;;9.60;2.22;;;26.20;99.90;;;;;;5030494;28;19996;-76
2022/07/19 09:37:17;;;;;;;6.65;2.00;;;26.30;99.90;;;;;;5030741;28;20041;-76
2022/07/19 09:39:49;;;;;;;5.50;1.90;;;26.40;99.90;;;;;;5033344;28;20088;-77
2022/07/19 09:42:21;;;;;;;5.60;2.25;;;26.60;99.90;;;;;;5026195;28;20095;-77
2022/07/19 09:45:01;;;;;;;4.20;1.92;;;26.70;99.90;;;;;;5030714;28;20557;-76
2022/07/19 09:47:32;;;;;;;;;;;26.70;99.90;;;;;;5030344;28;20111;-76
2022/07/19 09:50:00;;;;;;;2.97;2.30;;;26.80;99.90;;;;;;5040732;28;20015;-76
2022/07/19 09:52:27;;;;;;;6.60;1.90;;;26.90;99.90;;;;;;5027342;28;20047;-76
2022/07/19 09:55:07;;;;;;;8.32;2.47;;;27.00;99.90;;;;;;5031276;28;20108;-75
2022/07/19 09:57:38;;;;;;;7.93;2.33;;;27.20;99.90;;;;;;5029153;28;20084;-76
2022/07/19 10:00:06;;;;;;;3.72;2.22;;;27.20;99.90;;;;;;5032338;28;20084;-76
2022/07/19 10:02:39;;;;;;;6.75;1.90;;;27.20;99.90;;;;;;5024197;28;20125;-76
2022/07/19 10:05:07;;;;;;;4.00;2.17;;;27.20;99.90;;;;;;5030502;28;20059;-77
2022/07/19 10:07:34;;;;;;;5.68;2.10;;;27.30;99.90;;;;;;5029641;28;20087;-76
2022/07/19 10:10:07;;;;;;;4.18;1.75;;;27.30;98.60;;;;;;5030631;28;20080;-76
2022/07/19 10:12:37;;;;;;;3.67;1.80;;;27.30;98.60;;;;;;5021966;28;20077;-75
2022/07/19 10:15:05;;;;;;;5.80;3.08;;;27.40;99.40;;;;;;5031017;28;20057;-76
2022/07/19 10:18:11;;;;;;;8.48;3.10;;;27.40;98.90;;;;;;5040687;28;20482;-76
2022/07/19 10:20:39;;;;;;;6.15;2.00;;;27.40;99.90;;;;;;5030247;28;20419;-76
2022/07/19 10:23:06;;;;;;;5.03;2.45;;;27.50;99.20;;;;;;5025883;28;20132;-75
2022/07/19 10:25:41;;;;;;;7.80;2.38;;;27.60;99.90;;;;;;5029174;28;20111;-76
2022/07/19 10:28:28;;;;;;;10.27;2.17;;;27.70;99.20;;;;;;5019164;28;20084;-75
2022/07/19 10:31:26;;;;;;;10.27;2.10;;;28.00;98.20;;;;;;5027912;28;20071;-76
2022/07/19 10:34:05;;;;;;;5.25;2.20;;;28.00;98.00;;;;;;5025350;28;20049;-76
2022/07/19 10:36:32;;;;;;;5.65;2.38;;;28.10;98.50;;;;;;5023334;28;20150;-75
2022/07/19 10:39:34;;;;;;;3.92;1.65;;;28.10;98.40;;;;;;5031890;28;20132;-76
2022/07/19 10:42:17;;;;;;;4.90;1.50;;;28.20;97.70;;;;;;4995282;28;20175;-77
2022/07/19 10:44:59;;;;;;;4.55;1.80;;;28.30;96.80;;;;;;5024432;28;20057;-76
2022/07/19 10:47:34;;;;;;;6.13;2.13;;;28.30;97.60;;;;;;5030311;28;20064;-76
2022/07/19 10:50:08;;;;;;;3.80;2.00;;;28.30;98.00;;;;;;5026451;28;20042;-76
2022/07/19 10:52:37;;;;;;;5.55;2.10;;;28.40;98.20;;;;;;5026867;28;20054;-76
2022/07/19 10:55:27;;;;;;;10.43;2.42;;;28.60;97.40;;;;;;5028958;28;20069;-77
2022/07/19 10:58:06;;;;;;;8.32;1.90;;;28.70;97.80;;;;;;5036327;28;20567;-76
2022/07/19 11:00:44;;;;;;;4.45;2.28;;;28.70;97.60;;;;;;5024802;28;20050;-76
2022/07/19 11:03:20;;;;;;;9.23;2.03;;;28.70;97.80;;;;;;5028500;28;20100;-76
2022/07/19 11:05:53;;;;;;;6.10;2.30;;;28.70;98.00;;;;;;5030416;28;20084;-76
2022/07/19 11:08:36;;;;;;;5.95;3.13;;;28.70;97.60;;;;;;5030234;28;20103;-76
2022/07/19 11:11:14;;;;;;;4.75;2.22;;;28.70;97.50;;;;;;5026710;28;20080;-76
2022/07/19 11:13:55;;;;;;;6.47;2.22;;;28.70;98.50;;;;;;5027396;28;20050;-77
2022/07/19 11:16:25;;;;;;;8.70;2.55;;;28.80;98.50;;;;;;5028934;28;20506;-76
2022/07/19 11:19:05;;;;;;;10.93;2.28;;;28.80;98.30;;;;;;5028691;28;20049;-76
2022/07/19 11:21:34;;;;;;;9.32;2.50;;;28.70;98.60;;;;;;5026392;28;20081;-76
2022/07/19 11:24:03;;;;;;;6.28;2.20;;;28.80;98.30;;;;;;5027842;28;20081;-75
2022/07/19 11:26:38;;;;;;;5.32;2.03;;;28.90;98.30;;;;;;5031599;28;20132;-76
2022/07/19 11:29:13;;;;;;;5.88;2.03;;;29.00;98.20;;;;;;5027807;28;20045;-76
2022/07/19 11:31:47;;;;;;;5.97;2.05;;;28.90;97.40;;;;;;5030599;28;20045;-76
2022/07/19 11:34:14;;;;;;;4.45;2.00;;;29.20;98.00;;;;;;5026595;28;20566;-76
2022/07/19 11:36:41;;;;;;;8.88;2.00;;;29.30;98.10;;;;;;5031841;28;20111;-76
2022/07/19 11:39:08;;;;;;;4.82;1.98;;;29.40;98.10;;;;;;5024514;28;20076;-75
2022/07/19 11:41:34;;;;;;;7.22;2.20;;;29.40;97.40;;;;;;5024871;28;20132;-75
2022/07/19 11:44:04;;;;;;;4.53;2.50;;;29.40;97.60;;;;;;5027849;28;20074;-75
2022/07/19 11:46:34;;;;;;;5.13;2.00;;;29.60;97.10;;;;;;5025416;28;20079;-76
2022/07/19 11:49:04;;;;;;;6.07;2.22;;;29.60;97.80;;;;;;5029768;28;20049;-76
2022/07/19 11:51:31;;;;;;;2.13;1.80;;;29.60;97.30;;;;;;5028326;28;20132;-76
2022/07/19 11:54:00;;;;;;;7.35;1.73;;;29.50;97.10;;;;;;5029623;28;20686;-76
2022/07/19 11:56:29;;;;;;;4.07;1.88;;;29.80;96.70;;;;;;5030053;28;20057;-76
2022/07/19 11:59:01;;;;;;;5.63;1.70;;;30.00;96.10;;;;;;5031014;28;20153;-76
2022/07/19 12:01:33;;;;;;;5.60;1.92;;;30.10;96.70;;;;;;5025268;28;20152;-75
2022/07/19 12:04:06;;;;;;;5.25;1.90;;;30.10;96.50;;;;;;5029607;28;20132;-76
2022/07/19 12:06:50;;;;;;;3.22;2.20;;;30.00;96.70;;;;;;5028283;28;20051;-76
2022/07/19 12:09:25;;;;;;;5.53;2.20;;;30.00;97.10;;;;;;5029768;28;20100;-76
2022/07/19 12:11:54;;;;;;;3.78;2.00;;;30.20;96.10;;;;;;5025899;28;20055;-76
2022/07/19 12:14:29;;;;;;;3.13;1.90;;;30.50;95.50;;;;;;5027730;28;20137;-76
2022/07/19 12:17:13;;;;;;;5.38;2.03;;;30.40;96.00;;;;;;5028056;28;20041;-76
2022/07/19 12:19:43;;;;;;;4.43;2.50;;;30.60;95.00;;;;;;5025975;28;20046;-76
2022/07/19 12:22:36;;;;;;;7.88;2.33;;;30.50;95.50;;;;;;5027806;28;20049;-76
2022/07/19 12:25:08;;;;;;;4.18;1.83;;;30.50;95.40;;;;;;5026022;28;20053;-77
2022/07/19 12:27:36;;;;;;;3.80;2.08;;;30.40;95.50;;;;;;5029489;28;20081;-76
2022/07/19 12:30:05;;;;;;;7.63;2.22;;;30.40;96.40;;;;;;5030219;28;20049;-76
2022/07/19 12:32:34;;;;;;;8.00;2.07;;;30.60;94.60;;;;;;5024781;28;20055;-76
2022/07/19 12:35:13;;;;;;;4.70;2.40;;;30.60;95.20;;;;;;5027793;28;20103;-76
2022/07/19 12:37:46;;;;;;;5.68;2.17;;;30.90;94.60;;;;;;5029637;28;20065;-76
2022/07/19 12:40:19;;;;;;;4.40;2.33;;;30.90;94.80;;;;;;5023284;28;20111;-76
2022/07/19 12:43:03;;;;;;;3.13;1.92;;;30.80;95.10;;;;;;5029501;28;20077;-77
2022/07/19 12:45:46;;;;;;;4.70;2.22;;;30.70;94.80;;;;;;5028020;28;20096;-77
2022/07/19 12:48:16;;;;;;;4.28;1.90;;;30.60;94.90;;;;;;5026536;28;20053;-77
2022/07/19 12:50:45;;;;;;;4.78;2.10;;;30.60;95.00;;;;;;5027886;28;20050;-77
2022/07/19 12:53:14;;;;;;;6.80;2.10;;;30.60;95.00;;;;;;5027750;28;20080;-77
2022/07/19 12:55:45;;;;;;;10.20;1.98;;;30.60;95.10;;;;;;5033696;28;20292;-76
2022/07/19 12:58:14;;;;;;;4.53;2.22;;;30.70;95.20;;;;;;5030208;28;20538;-77
2022/07/19 13:00:42;;;;;;;7.65;2.20;;;30.90;95.20;;;;;;5037354;28;20061;-77
2022/07/19 13:03:09;;;;;;;4.93;1.90;;;30.90;95.30;;;;;;5030167;28;20072;-77
2022/07/19 13:05:36;;;;;;;4.32;1.58;;;30.90;94.70;;;;;;5034348;28;20132;-77
2022/07/19 13:08:03;;;;;;;10.27;2.13;;;31.30;94.30;;;;;;5026563;28;20503;-77